ěÝzenÝ letovÚho provozu ╚eskÚ republiky
Letiste: LKLN Aktualizace: 26.10.2020 23:56:24  UTC
 METAR LKLN 27.10. 00:00 ...
METAR LKLN 270000Z AUTO 22004KT 9999 -RA OVC072 08/08 Q1009=